Terminal Aerodrome Forecast
Issued by NWS Albany, NY

Home | Current Version | Previous Version | Text Only | Print | Product List | Glossary On
Versions: 1 2 3 4 5 6 7 8 9 10 11 12 13 14 15 16 17 18
000
FTUS41 KALY 022300
TAFALB
TAF
KALB 022328Z 0300/0324 18006KT P6SM VCSH SCT040 SCT100 SCT200
     FM030200 24006KT 6SM -SHRA BR SCT025 OVC040
      TEMPO 0302/0306 1SM TSRA BKN020CB OVC040
     FM030600 26007KT 3SM BR VCSH SCT003 BKN020
     FM031230 27009G19KT P6SM SCT040 SCT100=

USA.gov is the U.S. government's official web portal to all federal, state and local government web resources and services.